createdAt,value
2023-05-04T00:02:28.275Z,13.50
2023-05-04T00:04:58.700Z,10.53
2023-05-04T00:07:29.526Z,12.03
2023-05-04T00:10:01.378Z,10.10
2023-05-04T00:12:31.632Z,9.33
2023-05-04T00:15:02.352Z,12.43
2023-05-04T00:17:32.523Z,10.77
2023-05-04T00:20:03.762Z,12.33
2023-05-04T00:22:34.956Z,11.03
2023-05-04T00:25:08.965Z,10.37
2023-05-04T00:27:40.508Z,11.17
2023-05-04T00:30:13.712Z,10.00
2023-05-04T00:32:44.137Z,10.97
2023-05-04T00:35:14.979Z,11.10
2023-05-04T00:37:46.098Z,11.83
2023-05-04T00:40:16.431Z,13.45
2023-05-04T00:42:47.773Z,12.80
2023-05-04T00:45:19.937Z,12.67
2023-05-04T00:47:51.093Z,11.70
2023-05-04T00:50:21.604Z,10.77
2023-05-04T00:52:56.264Z,10.60
2023-05-04T00:55:27.165Z,11.63
2023-05-04T00:57:58.111Z,12.40
2023-05-04T01:00:28.834Z,10.97
2023-05-04T01:02:59.389Z,11.93
2023-05-04T01:05:36.649Z,13.73
2023-05-04T01:08:14.251Z,11.93
2023-05-04T01:10:49.996Z,11.87
2023-05-04T01:13:22.159Z,11.63
2023-05-04T01:15:53.746Z,13.03
2023-05-04T01:18:25.877Z,11.90
2023-05-04T01:20:56.869Z,11.73
2023-05-04T01:23:27.956Z,11.70
2023-05-04T01:26:04.063Z,12.60
2023-05-04T01:28:42.116Z,11.63
2023-05-04T01:31:14.948Z,12.80
2023-05-04T01:33:46.509Z,13.93
2023-05-04T01:36:17.383Z,11.43
2023-05-04T01:38:48.532Z,11.87
2023-05-04T01:41:19.065Z,13.47
2023-05-04T01:43:48.745Z,13.30
2023-05-04T01:46:20.172Z,11.80
2023-05-04T01:48:51.063Z,17.03
2023-05-04T01:51:23.009Z,13.03
2023-05-04T01:53:53.924Z,12.40
2023-05-04T01:56:24.068Z,13.83
2023-05-04T01:58:55.160Z,14.33
2023-05-04T02:01:25.552Z,12.63
2023-05-04T02:03:57.169Z,11.77
2023-05-04T02:06:28.014Z,15.78
2023-05-04T02:08:58.947Z,11.23
2023-05-04T02:11:29.275Z,12.77
2023-05-04T02:13:59.602Z,14.30
2023-05-04T02:16:29.965Z,12.17
2023-05-04T02:19:00.045Z,11.93
2023-05-04T02:21:30.795Z,13.43
2023-05-04T02:24:00.854Z,12.50
2023-05-04T02:26:32.247Z,12.17
2023-05-04T02:29:02.969Z,11.60
2023-05-04T02:31:34.156Z,13.33
2023-05-04T02:34:05.050Z,12.80
2023-05-04T02:36:35.788Z,12.28
2023-05-04T02:39:05.903Z,12.83
2023-05-04T02:41:38.480Z,12.40
2023-05-04T02:44:08.800Z,13.63
2023-05-04T02:46:39.527Z,12.93
2023-05-04T02:49:09.650Z,14.27
2023-05-04T02:51:40.179Z,14.93
2023-05-04T02:54:11.729Z,13.27
2023-05-04T02:56:41.645Z,13.85
2023-05-04T02:59:11.797Z,14.70
2023-05-04T03:01:42.310Z,15.00
2023-05-04T03:04:13.473Z,12.70
2023-05-04T03:06:43.761Z,13.87
2023-05-04T03:09:13.876Z,16.10
2023-05-04T03:11:45.630Z,14.30
2023-05-04T03:16:46.978Z,13.63
2023-05-04T03:19:18.430Z,14.47
2023-05-04T03:21:49.380Z,15.73
2023-05-04T03:24:19.907Z,16.50
2023-05-04T03:26:50.435Z,16.93
2023-05-04T03:29:21.369Z,21.00
2023-05-04T03:31:53.015Z,16.82
2023-05-04T03:34:24.276Z,19.07
2023-05-04T03:36:58.078Z,19.37
2023-05-04T03:39:29.420Z,17.57
2023-05-04T03:41:59.944Z,17.40
2023-05-04T03:44:30.888Z,17.20
2023-05-04T03:47:01.412Z,17.80
2023-05-04T03:49:31.942Z,16.87
2023-05-04T03:52:02.876Z,18.23
2023-05-04T03:54:33.603Z,18.97
2023-05-04T03:57:04.580Z,16.43
2023-05-04T03:59:35.892Z,21.82
2023-05-04T04:02:08.137Z,18.70
2023-05-04T04:04:39.071Z,16.33
2023-05-04T04:07:09.555Z,18.47
2023-05-04T04:09:40.252Z,16.57
2023-05-04T04:12:10.988Z,20.03
2023-05-04T04:14:41.116Z,17.00
2023-05-04T04:17:11.638Z,16.17
2023-05-04T04:19:42.367Z,15.50
2023-05-04T04:22:12.684Z,18.10
2023-05-04T04:24:42.982Z,17.93
2023-05-04T04:27:13.128Z,16.57
2023-05-04T04:29:43.874Z,16.97
2023-05-04T04:32:15.222Z,17.37
2023-05-04T04:34:45.125Z,15.83
2023-05-04T04:37:15.854Z,16.60
2023-05-04T04:39:46.795Z,18.07
2023-05-04T04:42:17.727Z,16.33
2023-05-04T04:44:49.076Z,16.33
2023-05-04T04:47:19.819Z,16.00
2023-05-04T04:49:50.340Z,16.23
2023-05-04T04:52:20.248Z,16.03
2023-05-04T04:54:51.594Z,14.93
2023-05-04T04:57:21.934Z,16.87
2023-05-04T04:59:53.060Z,16.97
2023-05-04T05:02:23.593Z,18.43
2023-05-04T05:04:54.405Z,15.50
2023-05-04T05:07:25.668Z,21.57
2023-05-04T05:09:56.201Z,14.10
2023-05-04T05:12:26.316Z,15.77
2023-05-04T05:14:57.042Z,15.97
2023-05-04T05:17:27.613Z,15.03
2023-05-04T05:19:58.311Z,15.90
2023-05-04T05:22:28.425Z,16.13
2023-05-04T05:24:58.952Z,15.67
2023-05-04T05:27:29.895Z,15.50
2023-05-04T05:30:00.415Z,15.03
2023-05-04T05:32:30.370Z,18.97
2023-05-04T05:35:00.675Z,16.30
2023-05-04T05:37:31.793Z,13.47
2023-05-04T05:40:05.640Z,14.03
2023-05-04T05:42:35.734Z,16.37
2023-05-04T05:45:07.890Z,13.97
2023-05-04T05:47:38.259Z,15.30
2023-05-04T05:50:12.831Z,17.07
2023-05-04T05:52:42.745Z,13.60
2023-05-04T05:55:13.890Z,15.17
2023-05-04T05:57:44.617Z,17.60
2023-05-04T06:00:19.036Z,15.03
2023-05-04T06:02:50.869Z,14.50
2023-05-04T06:05:20.932Z,13.53
2023-05-04T06:07:51.845Z,15.37
2023-05-04T06:10:23.004Z,15.07
2023-05-04T06:12:53.142Z,13.57
2023-05-04T06:15:24.251Z,12.90
2023-05-04T06:17:54.603Z,14.53
2023-05-04T06:20:27.559Z,13.77
2023-05-04T06:22:58.293Z,12.70
2023-05-04T06:25:28.406Z,13.70
2023-05-04T06:28:00.197Z,14.47
2023-05-04T06:30:30.896Z,14.30
2023-05-04T06:33:01.483Z,13.40
2023-05-04T06:35:33.182Z,14.23
2023-05-04T06:38:03.910Z,16.27
2023-05-04T06:40:34.647Z,13.83
2023-05-04T06:43:06.404Z,12.23
2023-05-04T06:45:37.695Z,17.52
2023-05-04T06:48:09.733Z,14.58
2023-05-04T06:50:40.644Z,16.70
2023-05-04T06:53:13.025Z,14.00
2023-05-04T06:55:43.746Z,17.10
2023-05-04T06:58:17.290Z,15.53
2023-05-04T07:00:47.903Z,14.23
2023-05-04T07:03:18.632Z,14.97
2023-05-04T07:05:50.807Z,13.20
2023-05-04T07:10:51.632Z,15.90
2023-05-04T07:13:22.152Z,11.27
2023-05-04T07:15:52.104Z,12.83
2023-05-04T07:18:22.800Z,13.67
2023-05-04T07:20:56.156Z,14.47
2023-05-04T07:23:32.452Z,12.67
2023-05-04T07:26:04.617Z,13.80
2023-05-04T07:31:05.674Z,11.97
2023-05-04T07:33:36.204Z,12.37
2023-05-04T07:36:09.624Z,14.43
2023-05-04T07:38:41.146Z,12.37
2023-05-04T07:41:11.680Z,11.28
2023-05-04T07:43:42.614Z,13.37
2023-05-04T07:46:13.986Z,11.57
2023-05-04T07:48:45.308Z,13.35
2023-05-04T07:51:16.034Z,12.33
2023-05-04T07:53:46.974Z,16.67
2023-05-04T07:56:18.955Z,13.27
2023-05-04T07:58:49.670Z,13.27
2023-05-04T08:01:20.195Z,11.27
2023-05-04T08:03:50.730Z,11.87
2023-05-04T08:06:22.886Z,12.23
2023-05-04T08:11:23.750Z,12.23
2023-05-04T08:13:54.478Z,13.53
2023-05-04T08:16:26.032Z,11.83
2023-05-04T08:18:56.967Z,12.07
2023-05-04T08:21:27.896Z,13.07
2023-05-04T08:23:58.234Z,11.27
2023-05-04T08:26:30.594Z,13.20
2023-05-04T08:29:09.928Z,12.87
2023-05-04T08:31:40.341Z,12.87
2023-05-04T08:34:11.202Z,10.97
2023-05-04T08:36:41.679Z,11.23
2023-05-04T08:39:12.462Z,11.10
2023-05-04T08:41:44.351Z,12.93
2023-05-04T08:44:14.799Z,9.93
2023-05-04T08:46:51.821Z,13.10
2023-05-04T08:49:24.000Z,13.13
2023-05-04T08:54:25.430Z,12.73
2023-05-04T08:59:28.508Z,12.00
2023-05-04T09:04:31.247Z,13.60
2023-05-04T09:09:31.680Z,13.43
2023-05-04T09:12:02.420Z,14.33
2023-05-04T09:14:36.456Z,13.70
2023-05-04T09:17:16.169Z,14.67
2023-05-04T09:19:46.513Z,17.43
2023-05-04T09:22:18.260Z,18.63
2023-05-04T09:24:48.785Z,14.80
2023-05-04T09:27:19.516Z,17.67
2023-05-04T09:29:55.987Z,18.13
2023-05-04T09:32:26.150Z,19.20
2023-05-04T09:34:56.628Z,16.87
2023-05-04T09:37:27.358Z,17.33
2023-05-04T09:39:59.178Z,15.23
2023-05-04T09:42:29.237Z,18.40
2023-05-04T09:45:05.310Z,18.63
2023-05-04T09:47:37.818Z,18.00
2023-05-04T09:50:21.029Z,16.50
2023-05-04T09:52:52.233Z,15.17
2023-05-04T09:55:22.961Z,16.00
2023-05-04T09:57:54.515Z,18.37
2023-05-04T10:00:25.670Z,18.90
2023-05-04T10:02:57.267Z,18.60
2023-05-04T10:05:28.401Z,15.72
2023-05-04T10:08:01.549Z,15.73
2023-05-04T10:10:33.438Z,16.10
2023-05-04T10:13:04.046Z,17.80
2023-05-04T10:15:37.031Z,19.43
2023-05-04T10:18:20.648Z,14.67
2023-05-04T10:21:07.561Z,15.47
2023-05-04T10:24:15.983Z,14.57
2023-05-04T10:27:09.446Z,16.00
2023-05-04T10:29:40.173Z,13.87
2023-05-04T10:32:21.721Z,16.43
2023-05-04T10:35:04.524Z,15.93
2023-05-04T10:37:37.157Z,17.87
2023-05-04T10:40:10.419Z,14.93
2023-05-04T10:42:45.781Z,16.80
2023-05-04T10:45:18.282Z,15.83
2023-05-04T10:47:58.766Z,15.43
2023-05-04T10:50:30.061Z,14.77
2023-05-04T10:53:00.390Z,13.77
2023-05-04T10:55:41.146Z,15.37
2023-05-04T10:58:15.982Z,17.00
2023-05-04T11:00:50.992Z,15.40
2023-05-04T11:03:22.100Z,17.40
2023-05-04T11:05:54.154Z,18.27
2023-05-04T11:08:25.932Z,15.85
2023-05-04T11:13:44.339Z,15.87
2023-05-04T11:16:14.952Z,17.47
2023-05-04T11:18:45.596Z,15.20
2023-05-04T11:21:25.547Z,14.57
2023-05-04T11:23:59.970Z,14.70
2023-05-04T11:26:30.303Z,15.43
2023-05-04T11:29:00.626Z,14.77
2023-05-04T11:31:31.411Z,13.63
2023-05-04T11:34:01.259Z,12.27
2023-05-04T11:36:36.906Z,11.27
2023-05-04T11:39:08.661Z,12.00
2023-05-04T11:41:39.392Z,11.38
2023-05-04T11:44:10.333Z,11.07
2023-05-04T11:46:41.032Z,12.67
2023-05-04T11:49:11.802Z,10.53
2023-05-04T11:51:42.537Z,9.60
2023-05-04T11:54:22.330Z,10.10
2023-05-04T11:56:52.599Z,9.33
2023-05-04T11:59:22.365Z,10.80
2023-05-04T12:01:52.639Z,9.30
2023-05-04T12:04:24.311Z,10.87
2023-05-04T12:06:54.710Z,10.68
2023-05-04T12:09:24.621Z,9.73
2023-05-04T12:11:58.839Z,9.90
2023-05-04T12:14:28.430Z,11.93
2023-05-04T12:17:02.354Z,11.20
2023-05-04T12:19:32.469Z,10.53
2023-05-04T12:22:04.739Z,10.30
2023-05-04T12:24:36.186Z,9.43
2023-05-04T12:27:12.465Z,8.05
2023-05-04T12:29:42.583Z,10.33
2023-05-04T12:32:12.753Z,10.33
2023-05-04T12:34:43.424Z,10.57
2023-05-04T12:37:14.158Z,9.17
2023-05-04T12:39:44.273Z,9.93
2023-05-04T12:42:14.999Z,9.87
2023-05-04T12:44:44.932Z,9.53
2023-05-04T12:47:17.215Z,8.50
2023-05-04T12:49:48.016Z,11.23
2023-05-04T12:52:18.747Z,8.53
2023-05-04T12:54:49.482Z,9.07
2023-05-04T12:57:20.212Z,9.03
2023-05-04T12:59:49.632Z,9.60
2023-05-04T13:02:19.916Z,7.73
2023-05-04T13:04:50.348Z,7.83
2023-05-04T13:07:20.687Z,8.60
2023-05-04T13:09:51.216Z,10.77
2023-05-04T13:12:21.336Z,10.30
2023-05-04T13:14:54.866Z,9.07
2023-05-04T13:17:25.313Z,10.03
2023-05-04T13:19:56.017Z,9.20
2023-05-04T13:22:26.722Z,8.30
2023-05-04T13:24:57.259Z,7.13
2023-05-04T13:27:27.167Z,11.03
2023-05-04T13:29:58.104Z,8.07
2023-05-04T13:32:28.686Z,8.03
2023-05-04T13:34:59.419Z,8.27
2023-05-04T13:37:29.280Z,9.67
2023-05-04T13:40:01.052Z,9.07
2023-05-04T13:42:31.563Z,10.20
2023-05-04T13:45:01.644Z,8.83
2023-05-04T13:47:33.933Z,8.73
2023-05-04T13:50:05.417Z,9.13
2023-05-04T13:52:36.538Z,8.83
2023-05-04T13:55:09.734Z,9.68
2023-05-04T13:57:40.070Z,7.80
2023-05-04T14:00:16.613Z,7.83
2023-05-04T14:02:48.122Z,6.30
2023-05-04T14:05:20.153Z,9.83
2023-05-04T14:07:51.704Z,9.83
2023-05-04T14:10:22.774Z,8.20
2023-05-04T14:12:53.632Z,7.60
2023-05-04T14:15:24.002Z,7.25
2023-05-04T14:17:54.130Z,7.40
2023-05-04T14:20:25.246Z,6.97
2023-05-04T14:22:55.579Z,8.53
2023-05-04T14:25:26.505Z,6.67
2023-05-04T14:27:57.236Z,8.80
2023-05-04T14:30:27.766Z,9.43
2023-05-04T14:32:58.324Z,9.90
2023-05-04T14:35:30.462Z,7.80
2023-05-04T14:38:00.987Z,6.83
2023-05-04T14:40:31.716Z,8.73
2023-05-04T14:43:03.483Z,10.43
2023-05-04T14:45:34.591Z,11.10
2023-05-04T14:48:06.610Z,8.77
2023-05-04T14:50:37.313Z,15.17
2023-05-04T14:53:08.049Z,9.77
2023-05-04T14:55:41.468Z,7.50
2023-05-04T14:58:13.516Z,6.67
2023-05-04T15:03:13.382Z,9.33
2023-05-04T15:05:43.968Z,12.00
2023-05-04T15:08:14.498Z,9.67
2023-05-04T15:10:44.617Z,10.53
2023-05-04T15:13:17.437Z,8.63
2023-05-04T15:15:47.728Z,8.27
2023-05-04T15:18:18.242Z,8.47
2023-05-04T15:20:49.182Z,11.17
2023-05-04T15:23:20.106Z,12.83
2023-05-04T15:25:50.440Z,9.83
2023-05-04T15:28:22.406Z,9.73
2023-05-04T15:30:53.134Z,9.63
2023-05-04T15:33:23.877Z,11.30
2023-05-04T15:35:54.602Z,9.13
2023-05-04T15:38:27.974Z,9.83
2023-05-04T15:40:58.317Z,8.23
2023-05-04T15:43:28.434Z,8.17
2023-05-04T15:45:59.175Z,7.87
2023-05-04T15:48:29.694Z,8.60
2023-05-04T15:50:59.611Z,8.97
2023-05-04T15:53:29.916Z,8.33
2023-05-04T15:56:00.667Z,8.83
2023-05-04T15:58:31.195Z,8.43
2023-05-04T16:01:03.526Z,8.77
2023-05-04T16:03:34.717Z,9.07
2023-05-04T16:06:06.462Z,10.00
2023-05-04T16:08:36.794Z,9.87
2023-05-04T16:11:07.667Z,8.73
2023-05-04T16:13:37.836Z,11.67
2023-05-04T16:16:10.838Z,10.20
2023-05-04T16:18:40.946Z,12.87
2023-05-04T16:21:13.666Z,10.23
2023-05-04T16:23:44.248Z,10.67
2023-05-04T16:26:14.781Z,10.27
2023-05-04T16:28:45.721Z,9.63
2023-05-04T16:31:16.529Z,9.43
2023-05-04T16:33:47.821Z,8.73
2023-05-04T16:36:18.528Z,10.72
2023-05-04T16:38:49.904Z,8.07
2023-05-04T16:41:20.613Z,9.45
2023-05-04T16:43:50.728Z,10.27
2023-05-04T16:46:21.300Z,8.53
2023-05-04T16:48:51.372Z,9.37
2023-05-04T16:51:21.288Z,8.97
2023-05-04T16:53:52.225Z,11.60
2023-05-04T16:56:23.985Z,12.10
2023-05-04T16:58:54.718Z,7.62
2023-05-04T17:01:25.275Z,11.40
2023-05-04T17:03:56.259Z,13.70
2023-05-04T17:06:26.518Z,12.00
2023-05-04T17:08:56.623Z,15.70
2023-05-04T17:11:27.401Z,22.37
2023-05-04T17:13:58.363Z,16.13
2023-05-04T17:16:28.650Z,14.20
2023-05-04T17:18:59.360Z,11.93
2023-05-04T17:21:30.288Z,11.03
2023-05-04T17:24:00.826Z,10.37
2023-05-04T17:26:32.186Z,10.73
2023-05-04T17:29:02.480Z,9.53
2023-05-04T17:31:33.041Z,24.03
2023-05-04T17:34:03.138Z,23.33
2023-05-04T17:36:33.861Z,23.10
2023-05-04T17:39:04.600Z,26.83
2023-05-04T17:41:35.433Z,25.43
2023-05-04T17:44:07.095Z,23.00
2023-05-04T17:46:37.616Z,21.68
2023-05-04T17:49:08.345Z,19.47
2023-05-04T17:51:39.694Z,12.37
2023-05-04T17:54:10.434Z,14.80
2023-05-04T17:56:40.325Z,13.40
2023-05-04T17:59:10.669Z,11.00
2023-05-04T18:01:41.188Z,11.33
2023-05-04T18:04:12.124Z,8.50
2023-05-04T18:06:42.655Z,9.03
2023-05-04T18:09:13.386Z,12.17
2023-05-04T18:11:43.912Z,9.10
2023-05-04T18:14:14.031Z,9.27
2023-05-04T18:16:44.595Z,10.43
2023-05-04T18:19:15.300Z,10.10
2023-05-04T18:21:46.026Z,8.93
2023-05-04T18:24:16.353Z,9.50
2023-05-04T18:26:47.895Z,10.83
2023-05-04T18:29:19.252Z,9.20
2023-05-04T18:31:50.603Z,10.37
2023-05-04T18:34:21.325Z,10.00
2023-05-04T18:36:51.445Z,10.50
2023-05-04T18:39:22.382Z,9.77
2023-05-04T18:41:52.902Z,9.37
2023-05-04T18:44:24.263Z,8.93
2023-05-04T18:46:54.178Z,10.13
2023-05-04T18:49:24.296Z,11.33
2023-05-04T18:51:55.021Z,12.20
2023-05-04T18:54:28.956Z,12.63
2023-05-04T18:57:00.618Z,12.75
2023-05-04T18:59:33.811Z,10.93
2023-05-04T19:02:04.301Z,10.67
2023-05-04T19:04:35.148Z,12.77
2023-05-04T19:07:05.359Z,10.33
2023-05-04T19:09:37.356Z,12.17
2023-05-04T19:12:09.076Z,11.22
2023-05-04T19:14:39.198Z,11.57
2023-05-04T19:17:09.920Z,13.70
2023-05-04T19:19:40.656Z,12.33
2023-05-04T19:22:12.728Z,14.28
2023-05-04T19:24:43.170Z,14.28
2023-05-04T19:27:13.674Z,11.67
2023-05-04T19:29:43.998Z,11.63
2023-05-04T19:32:23.452Z,13.13
2023-05-04T19:34:55.502Z,13.17
2023-05-04T19:37:26.030Z,12.13
2023-05-04T19:39:57.378Z,13.43
2023-05-04T19:42:27.899Z,15.08
2023-05-04T19:44:57.862Z,17.80
2023-05-04T19:47:29.603Z,13.40
2023-05-04T19:49:59.490Z,13.60
2023-05-04T19:52:30.217Z,14.00
2023-05-04T19:55:01.159Z,11.17
2023-05-04T19:57:31.897Z,12.83
2023-05-04T20:00:01.656Z,13.60
2023-05-04T20:02:42.434Z,13.93
2023-05-04T20:05:12.476Z,13.03
2023-05-04T20:07:42.407Z,13.93
2023-05-04T20:10:12.921Z,12.57
2023-05-04T20:12:43.694Z,11.33
2023-05-04T20:15:13.983Z,12.20
2023-05-04T20:17:44.331Z,14.47
2023-05-04T20:20:19.774Z,14.77
2023-05-04T20:22:51.705Z,17.27
2023-05-04T20:25:23.248Z,12.67
2023-05-04T20:27:53.575Z,11.83
2023-05-04T20:30:27.497Z,14.83
2023-05-04T20:32:57.561Z,15.13
2023-05-04T20:35:31.115Z,13.17
2023-05-04T20:38:02.287Z,13.87
2023-05-04T20:40:33.176Z,11.30
2023-05-04T20:43:03.903Z,11.75
2023-05-04T20:45:34.270Z,12.63
2023-05-04T20:48:05.146Z,12.63
2023-05-04T20:50:36.119Z,12.40
2023-05-04T20:53:06.840Z,11.47
2023-05-04T20:55:37.602Z,14.00
2023-05-04T20:58:08.094Z,13.43
2023-05-04T21:00:38.219Z,12.20
2023-05-04T21:03:08.791Z,13.73
2023-05-04T21:05:40.473Z,12.33
2023-05-04T21:08:12.185Z,15.32
2023-05-04T21:10:42.998Z,10.80
2023-05-04T21:13:13.627Z,13.33
2023-05-04T21:15:43.720Z,11.90
2023-05-04T21:18:15.390Z,11.87
2023-05-04T21:20:45.948Z,12.23
2023-05-04T21:23:16.448Z,13.23
2023-05-04T21:25:46.827Z,15.17
2023-05-04T21:28:17.097Z,12.27
2023-05-04T21:30:47.834Z,13.03
2023-05-04T21:33:18.565Z,12.53
2023-05-04T21:35:49.105Z,11.93
2023-05-04T21:38:21.650Z,14.00
2023-05-04T21:40:52.190Z,14.67
2023-05-04T21:43:23.129Z,12.47
2023-05-04T21:45:53.648Z,12.70
2023-05-04T21:48:23.579Z,12.77
2023-05-04T21:50:54.305Z,13.17
2023-05-04T21:53:25.073Z,12.30
2023-05-04T21:55:56.578Z,14.17
2023-05-04T21:58:26.706Z,13.60
2023-05-04T22:00:57.480Z,18.37
2023-05-04T22:03:29.610Z,21.90
2023-05-04T22:06:01.172Z,31.07
2023-05-04T22:08:31.334Z,35.52
2023-05-04T22:11:02.618Z,39.30
2023-05-04T22:13:32.738Z,33.07
2023-05-04T22:16:03.502Z,22.50
2023-05-04T22:18:34.206Z,17.97
2023-05-04T22:21:05.146Z,15.20
2023-05-04T22:23:35.878Z,17.37
2023-05-04T22:26:06.198Z,18.80
2023-05-04T22:28:37.138Z,15.63
2023-05-04T22:31:07.696Z,12.77
2023-05-04T22:33:38.405Z,20.35
2023-05-04T22:36:12.134Z,16.80
2023-05-04T22:38:42.321Z,15.07
2023-05-04T22:41:14.701Z,18.60
2023-05-04T22:43:44.806Z,14.17
2023-05-04T22:46:18.722Z,17.00
2023-05-04T22:48:49.348Z,14.60
2023-05-04T22:51:20.493Z,14.30
2023-05-04T22:53:51.029Z,17.10
2023-05-04T22:56:21.949Z,14.20
2023-05-04T22:58:52.482Z,13.80
2023-05-04T23:01:23.056Z,17.03
2023-05-04T23:03:54.060Z,15.07
2023-05-04T23:06:24.678Z,17.30
2023-05-04T23:08:56.010Z,18.97
2023-05-04T23:11:25.936Z,14.77
2023-05-04T23:13:56.055Z,16.20
2023-05-04T23:16:26.800Z,14.03
2023-05-04T23:18:58.549Z,16.23
2023-05-04T23:21:29.074Z,16.97
2023-05-04T23:23:59.803Z,18.87
2023-05-04T23:26:30.744Z,15.20
2023-05-04T23:29:01.277Z,17.17
2023-05-04T23:31:32.109Z,15.10
2023-05-04T23:34:02.958Z,16.20
2023-05-04T23:36:33.675Z,17.50
2023-05-04T23:39:04.617Z,15.97
2023-05-04T23:41:34.728Z,17.40
2023-05-04T23:44:05.460Z,14.80
2023-05-04T23:46:36.400Z,15.90
2023-05-04T23:49:06.927Z,17.03
2023-05-04T23:51:37.664Z,13.73
2023-05-04T23:54:08.798Z,17.87
2023-05-04T23:56:39.130Z,14.13
2023-05-04T23:59:10.170Z,18.67
